Time;durP1;ratioP1;P1;durP2;ratioP2;P2;SDS_P1;SDS_P2;PMS_P1;PMS_P2;Temp;Humidity;BMP_temperature;BMP_pressure;BME280_temperature;BME280_humidity;BME280_pressure;Samples;Min_cycle;Max_cycle;Signal;HPM_P1;HPM_P2
2023/05/29 00:01:01;;;;;;;;;;;;;;;-140.72;100.00;52563.34;6245395;23;20285;-72
2023/05/29 00:03:27;;;;;;;;;;;;;;;-140.72;100.00;52589.72;6245035;23;19911;-72
2023/05/29 00:05:52;;;;;;;;;;;;;;;-140.72;100.00;52589.72;6245267;23;19965;-72
2023/05/29 00:08:17;;;;;;;;;;;;;;;-140.72;100.00;52601.91;6218292;23;20100;-72
2023/05/29 00:10:42;;;;;;;;;;;;;;;-140.72;100.00;52577.53;6218046;23;20336;-72
2023/05/29 00:13:08;;;;;;;;;;;;;;;-140.72;100.00;52601.91;6245064;23;19911;-72
2023/05/29 00:15:33;;;;;;;;;;;;;;;-140.72;100.00;52561.31;6245138;23;19923;-72
2023/05/29 00:17:58;;;;;;;;;;;;;;;-140.72;100.00;52591.75;6245356;23;19993;-72
2023/05/29 00:20:23;;;;;;;;;;;;;;;-140.72;100.00;52561.31;6218219;23;19912;-72
2023/05/29 00:22:49;;;;;;;;;;;;;;;-140.72;100.00;52595.81;6217610;23;19911;-72
2023/05/29 00:25:14;;;;;;;;;;;;;;;-140.72;100.00;52595.81;6252124;23;19922;-72
2023/05/29 00:27:44;;;;;;;;;;;;;;;-140.72;100.00;52597.84;6251964;23;19911;-75
2023/05/29 00:30:09;;;;;;;;;;;;;;;-140.72;100.00;52589.72;6246479;23;19955;-72
2023/05/29 00:32:36;;;;;;;;;;;;;;;-140.72;100.00;52575.50;6245084;23;19920;-72
2023/05/29 00:35:02;;;;;;;;;;;;;;;-140.72;100.00;52541.03;6246753;22;19911;-72
2023/05/29 00:37:28;;;;;;;;;;;;;;;-140.72;100.00;52577.53;6218682;23;20051;-72
2023/05/29 00:39:53;;;;;;;;;;;;;;;-140.72;100.00;52567.41;6245050;23;19916;-72
2023/05/29 00:42:18;;;;;;;;;;;;;;;-140.72;100.00;52599.88;6244850;23;19958;-72
2023/05/29 00:44:43;;;;;;;;;;;;;;;-140.72;100.00;52585.66;6244987;23;19912;-72
2023/05/29 00:47:09;;;;;;;;;;;;;;;-140.72;100.00;52591.75;6244756;23;19923;-72
2023/05/29 00:49:36;;;;;;;;;;;;;;;-140.72;100.00;52595.81;6244926;23;20300;-72
2023/05/29 00:52:01;;;;;;;;;;;;;;;-140.72;100.00;52577.53;6245170;23;19915;-72
2023/05/29 00:54:28;;;;;;;;;;;;;;;-140.72;100.00;52591.75;6244583;23;20013;-72
2023/05/29 00:56:54;;;;;;;;;;;;;;;-140.72;100.00;52565.38;6244947;23;19915;-72
2023/05/29 00:59:21;;;;;;;;;;;;;;;-140.72;100.00;52581.59;6245020;23;19923;-72
2023/05/29 01:01:47;;;;;;;;;;;;;;;-140.72;100.00;52577.53;6244417;23;19915;-72
2023/05/29 01:04:15;;;;;;;;;;;;;;;-140.72;100.00;52565.38;6244949;23;19931;-72
2023/05/29 01:06:41;;;;;;;;;;;;;;;-140.72;100.00;52583.63;6245107;23;20338;-72
2023/05/29 01:09:06;;;;;;;;;;;;;;;-140.72;100.00;52553.19;6245442;23;19950;-72
2023/05/29 01:11:40;;;;;;;;;;;;;;;-140.72;100.00;52603.94;6245744;23;19916;-72
2023/05/29 01:14:09;;;;;;;;;;;;;;;-140.72;100.00;52593.78;6246317;23;19920;-72
2023/05/29 01:16:41;;;;;;;;;;;;;;;-140.72;100.00;52545.06;6247656;23;19928;-72
2023/05/29 01:19:15;;;;;;;;;;;;;;;-140.72;100.00;52563.34;6244942;23;20261;-72
2023/05/29 01:21:49;;;;;;;;;;;;;;;-140.72;100.00;52561.31;6245143;23;19915;-72
2023/05/29 01:24:25;;;;;;;;;;;;;;;-140.72;100.00;52614.06;6244875;23;20394;-72
2023/05/29 01:26:52;;;;;;;;;;;;;;;-140.72;100.00;52603.94;6245192;23;20229;-72
2023/05/29 01:29:19;;;;;;;;;;;;;;;-140.72;100.00;52605.94;6218331;23;19912;-72
2023/05/29 01:31:45;;;;;;;;;;;;;;;-140.72;100.00;52603.94;6245528;23;19915;-72
2023/05/29 01:34:11;;;;;;;;;;;;;;;-140.72;100.00;52601.91;6245123;23;19919;-73
2023/05/29 01:36:36;;;;;;;;;;;;;;;-140.72;100.00;52614.06;6217889;23;19915;-72
2023/05/29 01:39:02;;;;;;;;;;;;;;;-140.72;100.00;52626.25;6245443;23;19912;-71
2023/05/29 01:41:28;;;;;;;;;;;;;;;-140.72;100.00;52577.53;6245635;23;19953;-72
2023/05/29 01:43:55;;;;;;;;;;;;;;;-140.72;100.00;52599.88;6245403;23;19915;-72
2023/05/29 01:46:21;;;;;;;;;;;;;;;-140.72;100.00;52626.25;6246016;23;19911;-72
2023/05/29 01:48:47;;;;;;;;;;;;;;;-140.72;100.00;52577.53;6246464;23;19912;-72
2023/05/29 01:51:12;;;;;;;;;;;;;;;-140.72;100.00;52585.66;6219428;23;20010;-71
2023/05/29 01:53:41;;;;;;;;;;;;;;;-140.72;100.00;52616.09;6220087;23;19950;-72
2023/05/29 01:56:07;;;;;;;;;;;;;;;-140.72;100.00;52612.03;6247011;23;20236;-71
2023/05/29 01:58:34;;;;;;;;;;;;;;;-140.72;100.00;52614.06;6247362;23;19921;-71
2023/05/29 02:00:59;;;;;;;;;;;;;;;-140.72;100.00;52638.41;6247657;23;19911;-71
2023/05/29 02:03:28;;;;;;;;;;;;;;;-140.72;100.00;52610.00;6249142;23;19931;-71
2023/05/29 02:05:53;;;;;;;;;;;;;;;-140.72;100.00;52622.19;6250288;23;19996;-71
2023/05/29 02:08:19;;;;;;;;;;;;;;;-140.72;100.00;52654.66;6248341;23;19916;-71
2023/05/29 02:10:44;;;;;;;;;;;;;;;-140.72;100.00;52605.94;6248873;23;20354;-72
2023/05/29 02:13:14;;;;;;;;;;;;;;;-140.72;100.00;52652.63;6229421;23;19934;-72
2023/05/29 02:15:40;;;;;;;;;;;;;;;-140.72;100.00;52626.25;6257237;23;19924;-72
2023/05/29 02:18:07;;;;;;;;;;;;;;;-140.72;100.00;52610.00;6250908;23;19916;-72
2023/05/29 02:20:38;;;;;;;;;;;;;;;-140.72;100.00;52589.72;6224422;23;19911;-72
2023/05/29 02:23:03;;;;;;;;;;;;;;;-140.72;100.00;52622.19;6222928;23;19915;-73
2023/05/29 02:25:28;;;;;;;;;;;;;;;-140.72;100.00;52603.94;6247564;23;19912;-72
2023/05/29 02:27:53;;;;;;;;;;;;;;;-140.72;100.00;52610.00;6219369;23;20193;-73
2023/05/29 02:30:19;;;;;;;;;;;;;;;-140.72;100.00;52587.69;6218893;23;19911;-72
2023/05/29 02:32:44;;;;;;;;;;;;;;;-140.72;100.00;52642.47;6219133;23;19985;-72
2023/05/29 02:35:09;;;;;;;;;;;;;;;-140.72;100.00;52585.66;6219267;23;19912;-72
2023/05/29 02:37:35;;;;;;;;;;;;;;;-140.72;100.00;52618.13;6246963;23;19987;-72
2023/05/29 02:40:00;;;;;;;;;;;;;;;-140.72;100.00;52599.88;6246322;23;20038;-72
2023/05/29 02:42:25;;;;;;;;;;;;;;;-140.72;100.00;52630.31;6246117;23;19918;-72
2023/05/29 02:44:50;;;;;;;;;;;;;;;-140.72;100.00;52622.19;6247228;23;19919;-72
2023/05/29 02:47:16;;;;;;;;;;;;;;;-140.72;100.00;52591.75;6247005;23;20009;-71
2023/05/29 02:49:41;;;;;;;;;;;;;;;-140.72;100.00;52577.53;6220107;23;20193;-71
2023/05/29 02:52:06;;;;;;;;;;;;;;;-140.72;100.00;52620.16;6246687;23;20045;-72
2023/05/29 02:54:31;;;;;;;;;;;;;;;-140.72;100.00;52587.69;6246803;23;20653;-71
2023/05/29 02:56:57;;;;;;;;;;;;;;;-140.72;100.00;52622.19;6218373;23;19989;-72
2023/05/29 02:59:22;;;;;;;;;;;;;;;-140.72;100.00;52644.50;6246264;23;19918;-71
2023/05/29 03:01:48;;;;;;;;;;;;;;;-140.72;100.00;52610.00;6246813;23;19965;-72
2023/05/29 03:04:17;;;;;;;;;;;;;;;-140.72;100.00;52618.13;6219096;23;19923;-72
2023/05/29 03:06:42;;;;;;;;;;;;;;;-140.72;100.00;52589.72;6246281;23;20347;-72
2023/05/29 03:09:08;;;;;;;;;;;;;;;-140.72;100.00;52618.13;6246639;23;19912;-72
2023/05/29 03:11:35;;;;;;;;;;;;;;;-140.72;100.00;52622.19;6219698;23;20327;-72
2023/05/29 03:14:00;;;;;;;;;;;;;;;-140.72;100.00;52622.19;6246236;23;19946;-72
2023/05/29 03:16:29;;;;;;;;;;;;;;;-140.72;100.00;52597.84;6219325;23;19919;-72
2023/05/29 03:18:54;;;;;;;;;;;;;;;-140.72;100.00;52601.91;6219060;23;19937;-72
2023/05/29 03:21:21;;;;;;;;;;;;;;;-140.72;100.00;52589.72;6247891;23;19918;-72
2023/05/29 03:23:46;;;;;;;;;;;;;;;-140.72;100.00;52612.03;6219758;23;19934;-70
2023/05/29 03:26:12;;;;;;;;;;;;;;;-140.72;100.00;52593.78;6219478;23;19911;-71
2023/05/29 03:28:37;;;;;;;;;;;;;;;-140.72;100.00;52638.41;6247036;23;19986;-71
2023/05/29 03:31:02;;;;;;;;;;;;;;;-140.72;100.00;52624.22;6246641;23;19927;-72
2023/05/29 03:33:28;;;;;;;;;;;;;;;-140.72;100.00;52610.00;6246426;23;19927;-72
2023/05/29 03:35:53;;;;;;;;;;;;;;;-140.72;100.00;52630.31;6221299;23;20011;-72
2023/05/29 03:38:18;;;;;;;;;;;;;;;-140.72;100.00;52622.19;6249378;23;19911;-72
2023/05/29 03:40:43;;;;;;;;;;;;;;;-140.72;100.00;52622.19;6249362;23;19919;-72
2023/05/29 03:43:09;;;;;;;;;;;;;;;-140.72;100.00;52636.38;6246798;23;20393;-72
2023/05/29 03:45:34;;;;;;;;;;;;;;;-140.72;100.00;52601.91;6218745;23;19911;-72
2023/05/29 03:47:59;;;;;;;;;;;;;;;-140.72;100.00;52599.88;6246354;23;20680;-72
2023/05/29 03:50:24;;;;;;;;;;;;;;;-140.72;100.00;52620.16;6246235;23;19938;-72
2023/05/29 03:52:50;;;;;;;;;;;;;;;-140.72;100.00;52650.59;6246477;23;19919;-72
2023/05/29 03:55:15;;;;;;;;;;;;;;;-140.72;100.00;52654.66;6245825;23;19931;-72
2023/05/29 03:57:41;;;;;;;;;;;;;;;-140.72;100.00;52650.59;6246060;23;19916;-71
2023/05/29 04:00:10;;;;;;;;;;;;;;;-140.72;100.00;52614.06;6247287;23;19912;-72
2023/05/29 04:02:37;;;;;;;;;;;;;;;-140.72;100.00;52618.13;6252117;23;19918;-72
2023/05/29 04:05:02;;;;;;;;;;;;;;;-140.72;100.00;52626.25;6247579;23;19920;-71
2023/05/29 04:07:28;;;;;;;;;;;;;;;-140.72;100.00;52599.88;6246555;23;19918;-71
2023/05/29 04:09:53;;;;;;;;;;;;;;;-140.72;100.00;52624.22;6246227;23;19916;-73
2023/05/29 04:12:18;;;;;;;;;;;;;;;-140.72;100.00;52632.34;6246804;23;19911;-71
2023/05/29 04:14:43;;;;;;;;;;;;;;;-140.72;100.00;52626.25;6218950;23;19916;-72
2023/05/29 04:17:08;;;;;;;;;;;;;;;-140.72;100.00;52620.16;6245932;23;20006;-72
2023/05/29 04:19:34;;;;;;;;;;;;;;;-140.72;100.00;52620.16;6245446;23;19939;-72
2023/05/29 04:21:59;;;;;;;;;;;;;;;-140.72;100.00;52646.53;6245812;23;19912;-72
2023/05/29 04:24:24;;;;;;;;;;;;;;;-140.72;100.00;52656.69;6218869;23;19911;-72
2023/05/29 04:26:51;;;;;;;;;;;;;;;-140.72;100.00;52599.88;6245836;23;19919;-72
2023/05/29 04:29:16;;;;;;;;;;;;;;;-140.72;100.00;52624.22;6246338;23;19961;-72
2023/05/29 04:31:42;;;;;;;;;;;;;;;-140.72;100.00;52622.19;6245976;23;20249;-72
2023/05/29 04:34:08;;;;;;;;;;;;;;;-140.72;100.00;52622.19;6245969;23;19970;-72
2023/05/29 04:36:33;;;;;;;;;;;;;;;-140.72;100.00;52630.31;6246155;22;19916;-71
2023/05/29 04:38:58;;;;;;;;;;;;;;;-140.72;100.00;52628.28;6218997;23;19919;-71
2023/05/29 04:41:29;;;;;;;;;;;;;;;-140.72;100.00;52616.09;6246869;23;19917;-71
2023/05/29 04:43:55;;;;;;;;;;;;;;;-140.72;100.00;52636.38;6245351;23;19911;-72
2023/05/29 04:46:20;;;;;;;;;;;;;;;-140.72;100.00;52634.38;6245469;23;19946;-71
2023/05/29 04:48:46;;;;;;;;;;;;;;;-140.72;100.00;52622.19;6218545;23;19911;-72
2023/05/29 04:51:11;;;;;;;;;;;;;;;-140.72;100.00;52605.94;6246714;23;19912;-72
2023/05/29 04:53:38;;;;;;;;;;;;;;;-140.72;100.00;52654.66;6247059;23;19931;-72
2023/05/29 04:56:03;;;;;;;;;;;;;;;-140.72;100.00;52601.91;6246676;23;19974;-72
2023/05/29 04:58:28;;;;;;;;;;;;;;;-140.72;100.00;52599.88;6246825;23;19912;-72
2023/05/29 05:00:57;;;;;;;;;;;;;;;-140.72;100.00;52648.56;6246189;23;19922;-72
2023/05/29 05:03:24;;;;;;;;;;;;;;;-140.72;100.00;52622.19;6219070;23;19942;-72
2023/05/29 05:05:49;;;;;;;;;;;;;;;-140.72;100.00;52612.03;6245950;23;19912;-72
2023/05/29 05:08:15;;;;;;;;;;;;;;;-140.72;100.00;52650.59;6218518;23;20090;-72
2023/05/29 05:10:41;;;;;;;;;;;;;;;-140.72;100.00;52618.13;6218818;23;19931;-72
2023/05/29 05:13:11;;;;;;;;;;;;;;;-140.72;100.00;52587.69;6245543;23;19918;-72
2023/05/29 05:15:36;;;;;;;;;;;;;;;-140.72;100.00;52597.84;6248173;23;19931;-72
2023/05/29 05:18:01;;;;;;;;;;;;;;;-140.72;100.00;52597.84;6249064;23;19922;-76
2023/05/29 05:20:26;;;;;;;;;;;;;;;-140.72;100.00;52581.59;6223574;23;20007;-78
2023/05/29 05:22:52;;;;;;;;;;;;;;;-140.72;100.00;52614.06;6234131;23;19922;-78
2023/05/29 05:25:23;;;;;;;;;;;;;;;-140.72;100.00;52603.94;6231775;23;19923;-80
2023/05/29 05:27:48;;;;;;;;;;;;;;;-140.72;100.00;52589.72;6232522;23;19911;-80
2023/05/29 05:30:14;;;;;;;;;;;;;;;-140.72;100.00;52620.16;6232027;23;19958;-81
2023/05/29 05:32:39;;;;;;;;;;;;;;;-140.72;100.00;52577.53;6233594;23;19919;-77
2023/05/29 05:35:04;;;;;;;;;;;;;;;-140.72;100.00;52585.66;6225798;23;19916;-77
2023/05/29 05:37:29;;;;;;;;;;;;;;;-140.72;100.00;52593.78;6222871;23;19919;-76
2023/05/29 05:39:57;;;;;;;;;;;;;;;-140.72;100.00;52607.97;6218172;23;19919;-74
2023/05/29 05:42:22;;;;;;;;;;;;;;;-140.72;100.00;52601.91;6247684;23;20292;-73
2023/05/29 05:44:47;;;;;;;;;;;;;;;-140.72;100.00;52597.84;6244822;23;19946;-71
2023/05/29 05:47:13;;;;;;;;;;;;;;;-140.72;100.00;52618.13;6244229;23;19961;-70
2023/05/29 05:49:38;;;;;;;;;;;;;;;-140.72;100.00;52534.94;6248712;23;19911;-78
2023/05/29 05:52:03;;;;;;;;;;;;;;;-140.72;100.00;52541.03;6223007;23;20034;-77
2023/05/29 05:54:29;;;;;;;;;;;;;;;-140.72;100.00;52555.22;6221207;23;19958;-77
2023/05/29 05:56:54;;;;;;;;;;;;;;;-140.72;100.00;52569.44;6218750;23;19917;-77
2023/05/29 05:59:19;;;;;;;;;;;;;;;-140.72;100.00;52573.50;6222704;23;19911;-77
2023/05/29 06:01:44;;;;;;;;;;;;;;;-140.72;100.00;52536.97;6246499;23;19923;-77
2023/05/29 06:04:10;;;;;;;;;;;;;;;-140.72;100.00;52573.50;6246737;23;19934;-77
2023/05/29 06:06:35;;;;;;;;;;;;;;;-140.72;100.00;52510.59;6218152;23;19990;-77
2023/05/29 06:09:00;;;;;;;;;;;;;;;-140.72;100.00;52577.53;6245669;23;20236;-73
2023/05/29 06:11:26;;;;;;;;;;;;;;;-140.72;100.00;52575.50;6217769;23;19919;-74
2023/05/29 06:13:52;;;;;;;;;;;;;;;-140.72;100.00;52559.28;6244380;23;19970;-73
2023/05/29 06:16:17;;;;;;;;;;;;;;;-140.72;100.00;52551.16;6245568;23;20236;-74
2023/05/29 06:18:44;;;;;;;;;;;;;;;-140.72;100.00;52583.63;6218302;23;20014;-74
2023/05/29 06:21:09;;;;;;;;;;;;;;;-140.72;100.00;52539.00;6217426;23;19923;-73
2023/05/29 06:23:36;;;;;;;;;;;;;;;-140.72;100.00;52551.16;6217368;23;19983;-73
2023/05/29 06:26:01;;;;;;;;;;;;;;;-140.72;100.00;52526.81;6243835;23;19912;-77
2023/05/29 06:28:26;;;;;;;;;;;;;;;-140.72;100.00;52520.72;6217364;23;19989;-71
2023/05/29 06:30:51;;;;;;;;;;;;;;;-140.72;100.00;52534.94;6243458;23;19938;-73
2023/05/29 06:33:17;;;;;;;;;;;;;;;-140.72;100.00;52524.78;6219177;23;19912;-74
2023/05/29 06:35:42;;;;;;;;;;;;;;;-140.72;100.00;52524.78;6220564;23;19915;-76
2023/05/29 06:38:07;;;;;;;;;;;;;;;-140.72;89.58;52518.69;6247040;23;19912;-75
2023/05/29 06:40:32;;;;;;;;;;;;;;;-140.72;59.84;52536.97;6221375;23;19915;-75
2023/05/29 06:42:58;;;;;;;;;;;;;;;-140.72;33.99;52504.50;6222525;23;19927;-77
2023/05/29 06:45:23;;;;;;;;;;;;;;;-140.72;15.31;52492.31;6250592;23;19911;-76
2023/05/29 06:47:48;;;;;;;;;;;;;;;-140.72;6.06;52500.44;6224418;23;19995;-77
2023/05/29 06:50:13;;;;;;;;;;;;;;;-140.72;0.00;52534.94;6250969;23;19923;-77
2023/05/29 06:52:39;;;;;;;;;;;;;;;-140.72;0.00;52543.03;6247673;23;19962;-77
2023/05/29 06:55:04;;;;;;;;;;;;;;;-140.72;0.00;52536.97;6220231;23;20292;-76
2023/05/29 06:57:30;;;;;;;;;;;;;;;-140.72;0.00;52490.28;6220071;23;19973;-76
2023/05/29 06:59:55;;;;;;;;;;;;;;;-140.72;0.00;52470.00;6221291;23;19912;-77
2023/05/29 07:02:20;;;;;;;;;;;;;;;-140.72;0.00;52494.34;6246559;23;19919;-79
2023/05/29 07:04:46;;;;;;;;;;;;;;;-140.72;0.00;52508.56;6218789;23;19911;-75
2023/05/29 07:07:11;;;;;;;;;;;;;;;-140.72;0.00;52498.41;6246778;23;20332;-73
2023/05/29 07:09:36;;;;;;;;;;;;;;;-140.72;0.00;52470.00;6246579;23;19911;-73
2023/05/29 07:12:01;;;;;;;;;;;;;;;-140.72;0.00;52492.31;6246043;23;19995;-73
2023/05/29 07:14:27;;;;;;;;;;;;;;;-140.72;0.00;52484.19;6218404;23;19994;-73
2023/05/29 07:16:52;;;;;;;;;;;;;;;-140.72;0.00;52423.31;6218884;23;19922;-73
2023/05/29 07:19:17;;;;;;;;;;;;;;;-140.72;0.00;52500.44;6245403;23;19911;-72
2023/05/29 07:21:43;;;;;;;;;;;;;;;-140.72;0.00;52472.03;6219029;23;19920;-72
2023/05/29 07:24:08;;;;;;;;;;;;;;;-140.72;0.00;52506.53;6218720;23;19951;-72
2023/05/29 07:26:33;;;;;;;;;;;;;;;-140.72;0.00;52476.09;6245148;23;19923;-73
2023/05/29 07:28:59;;;;;;;;;;;;;;;-140.72;0.00;52474.06;6217218;23;20339;-72
2023/05/29 07:31:24;;;;;;;;;;;;;;;-140.72;0.00;52472.03;6245295;23;19938;-72
2023/05/29 07:33:49;;;;;;;;;;;;;;;-140.72;0.00;52451.72;6245021;23;19912;-72
2023/05/29 07:36:16;;;;;;;;;;;;;;;-140.72;0.00;52482.16;6245115;22;19919;-72
2023/05/29 07:38:41;;;;;;;;;;;;;;;-140.72;0.00;52478.13;6250009;23;19911;-72
2023/05/29 07:41:06;;;;;;;;;;;;;;;-140.72;0.00;52461.88;6246637;23;19921;-72
2023/05/29 07:43:32;;;;;;;;;;;;;;;-140.72;0.00;52425.34;6246436;23;19912;-75
2023/05/29 07:45:57;;;;;;;;;;;;;;;-140.72;0.00;52427.38;6246741;23;19912;-72
2023/05/29 07:48:22;;;;;;;;;;;;;;;-140.72;0.00;52457.81;6247415;23;19916;-72
2023/05/29 07:50:48;;;;;;;;;;;;;;;-140.72;0.00;52459.84;6247511;23;20328;-72
2023/05/29 07:53:13;;;;;;;;;;;;;;;-140.72;0.00;52496.38;6219277;23;20221;-73
2023/05/29 07:55:38;;;;;;;;;;;;;;;-140.72;0.00;52480.16;6245809;23;19918;-72
2023/05/29 07:58:03;;;;;;;;;;;;;;;-140.72;0.00;52407.09;6218380;23;20568;-72
2023/05/29 08:00:29;;;;;;;;;;;;;;;-140.72;0.00;52476.09;6245311;23;20340;-72
2023/05/29 08:02:54;;;;;;;;;;;;;;;-140.72;0.00;52463.91;6245560;23;20316;-72
2023/05/29 08:05:20;;;;;;;;;;;;;;;-140.72;0.00;52476.09;6244989;23;19912;-72
2023/05/29 08:07:46;;;;;;;;;;;;;;;-140.72;0.00;52443.63;6245328;23;19912;-72
2023/05/29 08:10:12;;;;;;;;;;;;;;;-140.72;0.00;52443.63;6245202;23;20338;-72
2023/05/29 08:12:37;;;;;;;;;;;;;;;-140.72;0.00;52445.66;6246533;23;19927;-76
2023/05/29 08:15:02;;;;;;;;;;;;;;;-140.72;0.00;52437.53;6249077;23;19920;-76
2023/05/29 08:17:28;;;;;;;;;;;;;;;-140.72;0.00;52421.28;6222226;23;19911;-72
2023/05/29 08:19:53;;;;;;;;;;;;;;;-140.72;0.00;52427.38;6246280;23;19994;-78
2023/05/29 08:22:18;;;;;;;;;;;;;;;-140.72;0.00;52411.16;6219113;23;19911;-75
2023/05/29 08:24:44;;;;;;;;;;;;;;;-140.72;0.00;52451.72;6246211;23;19912;-76
2023/05/29 08:27:09;;;;;;;;;;;;;;;-140.72;0.00;52467.97;6247382;23;19950;-78
2023/05/29 08:29:35;;;;;;;;;;;;;;;-140.72;0.00;52415.22;6219180;23;19996;-76
2023/05/29 08:32:01;;;;;;;;;;;;;;;-140.72;0.00;52443.63;6248085;23;19911;-76
2023/05/29 08:34:26;;;;;;;;;;;;;;;-140.72;0.00;52411.16;6220641;23;20248;-76
2023/05/29 08:36:51;;;;;;;;;;;;;;;-140.72;0.00;52431.44;6246244;22;19927;-76
2023/05/29 08:39:17;;;;;;;;;;;;;;;-140.72;0.00;52396.94;6218895;23;19920;-76
2023/05/29 08:41:42;;;;;;;;;;;;;;;-140.72;0.00;52413.19;6246415;23;19990;-75
2023/05/29 08:44:07;;;;;;;;;;;;;;;-140.72;0.00;52411.16;6245943;23;19915;-75
2023/05/29 08:46:33;;;;;;;;;;;;;;;-140.72;0.00;52386.81;6251114;23;19942;-76
2023/05/29 08:48:59;;;;;;;;;;;;;;;-140.72;0.00;52378.69;6249894;23;19919;-76
2023/05/29 08:51:29;;;;;;;;;;;;;;;-140.72;0.00;52348.25;6245698;23;20320;-76
2023/05/29 08:53:55;;;;;;;;;;;;;;;-140.72;0.00;52330.00;6217985;23;20324;-76
2023/05/29 08:56:22;;;;;;;;;;;;;;;-140.72;0.00;52358.41;6245107;23;19916;-76
2023/05/29 08:58:48;;;;;;;;;;;;;;;-140.72;0.00;52323.91;6219835;23;19919;-78
2023/05/29 09:01:14;;;;;;;;;;;;;;;-140.72;0.00;52352.31;6219180;23;19916;-77
2023/05/29 09:03:41;;;;;;;;;;;;;;;-140.72;0.00;52348.25;6246801;23;20287;-76
2023/05/29 09:06:07;;;;;;;;;;;;;;;-140.72;0.00;52356.38;6249625;23;20287;-76
2023/05/29 09:08:32;;;;;;;;;;;;;;;-140.72;0.00;52334.03;6245798;23;19990;-76
2023/05/29 09:10:58;;;;;;;;;;;;;;;-140.72;0.00;52313.75;6245705;23;19911;-76
2023/05/29 09:13:23;;;;;;;;;;;;;;;-140.72;0.00;52354.34;6218618;23;20188;-76
2023/05/29 09:15:48;;;;;;;;;;;;;;;-140.72;0.00;52301.59;6218456;23;20024;-76
2023/05/29 09:18:16;;;;;;;;;;;;;;;-140.72;0.00;52319.84;6218879;23;19931;-75
2023/05/29 09:20:41;;;;;;;;;;;;;;;-140.72;0.00;52285.34;6245185;23;20359;-75
2023/05/29 09:23:07;;;;;;;;;;;;;;;-140.72;0.00;52289.41;6246057;23;19946;-76
2023/05/29 09:25:34;;;;;;;;;;;;;;;-140.72;0.00;52327.97;6225381;23;19916;-75
2023/05/29 09:28:03;;;;;;;;;;;;;;;-140.72;0.00;52285.34;6248600;23;20272;-75
2023/05/29 09:30:34;;;;;;;;;;;;;;;-140.72;0.00;52301.59;6256774;23;19937;-79
2023/05/29 09:33:00;;;;;;;;;;;;;;;-140.72;0.00;52297.53;6229367;23;20637;-77
2023/05/29 09:35:26;;;;;;;;;;;;;;;-140.72;0.00;52265.06;6225219;23;19931;-77
2023/05/29 09:37:52;;;;;;;;;;;;;;;-140.72;0.00;52232.59;6226703;23;19935;-78
2023/05/29 09:40:17;;;;;;;;;;;;;;;-140.72;0.00;52277.22;6225999;23;19918;-78
2023/05/29 09:42:42;;;;;;;;;;;;;;;-140.72;0.00;52234.63;6225733;23;19982;-78
2023/05/29 09:45:08;;;;;;;;;;;;;;;-140.72;0.00;52271.16;6217568;23;20240;-74
2023/05/29 09:47:34;;;;;;;;;;;;;;;-140.72;0.00;52210.28;6245049;23;19915;-76
2023/05/29 09:50:23;;;;;;;;;;;;;;;-140.72;0.00;52208.25;6217686;23;19954;-75
2023/05/29 09:52:52;;;;;;;;;;;;;;;-140.72;0.00;52189.97;6245786;23;20011;-75
2023/05/29 09:55:19;;;;;;;;;;;;;;;-140.72;0.00;52187.97;6246604;23;20014;-76
2023/05/29 09:57:50;;;;;;;;;;;;;;;-140.72;0.00;52220.41;6224422;23;19912;-78
2023/05/29 10:00:17;;;;;;;;;;;;;;;-140.72;0.00;52139.25;6223318;23;19919;-77
2023/05/29 10:02:42;;;;;;;;;;;;;;;-140.72;0.00;52155.50;6224997;23;19972;-78
2023/05/29 10:05:08;;;;;;;;;;;;;;;-140.72;0.00;52175.78;6221615;23;20315;-76
2023/05/29 10:07:35;;;;;;;;;;;;;;;-140.72;0.00;52192.00;6221986;23;19919;-75
2023/05/29 10:10:05;;;;;;;;;;;;;;;-140.72;0.00;52200.13;6247752;23;19977;-78
2023/05/29 10:12:33;;;;;;;;;;;;;;;-140.72;0.00;52179.84;6220212;23;19912;-74
2023/05/29 10:14:59;;;;;;;;;;;;;;;-140.72;0.00;52155.50;6219004;23;20280;-75
2023/05/29 10:17:26;;;;;;;;;;;;;;;-140.72;0.00;52127.09;6249735;23;19916;-78
2023/05/29 10:19:52;;;;;;;;;;;;;;;-140.72;0.00;52155.50;6219546;23;19912;-76
2023/05/29 10:22:19;;;;;;;;;;;;;;;-140.72;0.00;52157.53;6219286;23;19918;-76
2023/05/29 10:24:46;;;;;;;;;;;;;;;-140.72;0.00;52159.56;6220262;23;19915;-75
2023/05/29 10:27:11;;;;;;;;;;;;;;;-140.72;0.00;52108.81;6245967;23;19922;-75
2023/05/29 10:29:42;;;;;;;;;;;;;;;-140.72;0.00;52135.19;6245845;23;19942;-76
2023/05/29 10:32:07;;;;;;;;;;;;;;;-140.72;0.00;52137.22;6219698;23;19911;-76
2023/05/29 10:34:36;;;;;;;;;;;;;;;-140.72;0.00;52127.09;6248417;23;19980;-79
2023/05/29 10:37:05;;;;;;;;;;;;;;;-140.72;0.00;52094.63;6248452;22;20199;-75
2023/05/29 10:39:31;;;;;;;;;;;;;;;-140.72;0.00;52133.16;6220692;23;19912;-76
2023/05/29 10:41:58;;;;;;;;;;;;;;;-140.72;0.00;52084.47;6219717;23;20002;-81
2023/05/29 10:44:29;;;;;;;;;;;;;;;-140.72;0.00;52092.59;6219560;23;19919;-74
2023/05/29 10:47:01;;;;;;;;;;;;;;;-140.72;0.00;52078.38;6247508;23;19915;-74
2023/05/29 10:49:26;;;;;;;;;;;;;;;-140.72;0.00;52080.41;6219652;23;19912;-74
2023/05/29 10:52:03;;;;;;;;;;;;;;;-140.72;0.00;52062.16;6245825;23;19938;-76
2023/05/29 10:54:39;;;;;;;;;;;;;;;-140.72;0.00;52039.84;6220798;23;19962;-83
2023/05/29 10:57:08;;;;;;;;;;;;;;;-140.72;0.00;52029.69;6218611;23;19919;-74
2023/05/29 10:59:37;;;;;;;;;;;;;;;-140.72;0.00;52074.34;6218979;23;19911;-73
2023/05/29 11:02:03;;;;;;;;;;;;;;;-140.72;0.00;52021.56;6218628;23;19919;-73
2023/05/29 11:04:30;;;;;;;;;;;;;;;-140.72;0.00;52037.81;6245391;23;19912;-72
2023/05/29 11:06:56;;;;;;;;;;;;;;;-140.72;0.00;52047.97;6218756;23;20335;-74
2023/05/29 11:09:30;;;;;;;;;;;;;;;-140.72;0.00;51946.50;6246684;23;19915;-75
2023/05/29 11:12:11;;;;;;;;;;;;;;;-140.72;0.00;51976.94;6254409;23;19911;-72
2023/05/29 11:14:46;;;;;;;;;;;;;;;-140.72;0.00;52013.47;6250085;23;19912;-73
2023/05/29 11:17:28;;;;;;;;;;;;;;;-140.72;0.00;52009.41;6251655;23;19912;-73
2023/05/29 11:19:55;;;;;;;;;;;;;;;-140.72;0.00;52029.69;6247604;23;19915;-72
2023/05/29 11:22:23;;;;;;;;;;;;;;;-140.72;0.00;52017.53;6219519;23;20077;-73
2023/05/29 11:24:48;;;;;;;;;;;;;;;-140.72;0.00;52041.88;6219370;23;19945;-73
2023/05/29 11:27:14;;;;;;;;;;;;;;;-140.72;0.00;52037.81;6245674;23;19934;-73
2023/05/29 11:29:39;;;;;;;;;;;;;;;-140.72;0.00;51968.81;6246392;23;19912;-72
2023/05/29 11:32:07;;;;;;;;;;;;;;;-140.72;0.00;51972.88;6218577;23;19985;-70
2023/05/29 11:34:33;;;;;;;;;;;;;;;-140.72;0.00;51944.47;6246378;23;19916;-73
2023/05/29 11:36:59;;;;;;;;;;;;;;;-140.72;0.00;51954.63;6218956;23;19934;-73
2023/05/29 11:39:24;;;;;;;;;;;;;;;-140.72;0.00;52025.63;6219721;23;19915;-73
2023/05/29 11:41:51;;;;;;;;;;;;;;;-140.72;0.00;51948.53;6246177;23;19947;-73
2023/05/29 11:44:16;;;;;;;;;;;;;;;-140.72;0.00;51972.88;6246484;23;20289;-73
2023/05/29 11:46:41;;;;;;;;;;;;;;;-140.72;0.00;51989.13;6219440;23;19912;-73
2023/05/29 11:49:06;;;;;;;;;;;;;;;-140.72;0.00;52043.91;6219782;23;20070;-73
2023/05/29 11:51:32;;;;;;;;;;;;;;;-140.72;0.00;51978.97;6219156;23;20002;-72
2023/05/29 11:53:58;;;;;;;;;;;;;;;-140.72;0.00;51932.31;6218894;23;19911;-72
2023/05/29 11:56:32;;;;;;;;;;;;;;;-140.72;0.00;51938.41;6246284;23;19923;-73
2023/05/29 11:58:59;;;;;;;;;;;;;;;-140.72;0.00;51912.03;6245756;23;19912;-73
2023/05/29 12:01:25;;;;;;;;;;;;;;;-140.72;0.00;51946.50;6245642;23;19915;-73
2023/05/29 12:03:50;;;;;;;;;;;;;;;-140.72;0.00;51942.44;6218268;23;19937;-72
2023/05/29 12:06:16;;;;;;;;;;;;;;;-140.72;0.00;51905.94;6245151;23;20303;-73
2023/05/29 12:08:41;;;;;;;;;;;;;;;-140.72;0.00;51883.63;6218807;23;20286;-73
2023/05/29 12:11:07;;;;;;;;;;;;;;;-140.72;0.00;51954.63;6218749;23;20349;-73
2023/05/29 12:13:32;;;;;;;;;;;;;;;-140.72;0.00;51907.97;6218641;23;20014;-73
2023/05/29 12:15:59;;;;;;;;;;;;;;;-140.72;0.00;51952.59;6218383;23;19942;-73
2023/05/29 12:18:25;;;;;;;;;;;;;;;-140.72;0.00;51924.19;6245702;23;19919;-73
2023/05/29 12:20:56;;;;;;;;;;;;;;;-140.72;0.00;51993.19;6245873;23;19911;-73